Time;durP1;ratioP1;P1;durP2;ratioP2;P2;SDS_P1;SDS_P2;PMS_P1;PMS_P2;Temp;Humidity;BMP_temperature;BMP_pressure;BME280_temperature;BME280_humidity;BME280_pressure;Samples;Min_cycle;Max_cycle;Signal;HPM_P1;HPM_P2
2021/09/12 00:00:09;;;;;;;11.50;8.27;;;17.00;99.90;;;;;;5049090;28;20112;-42
2021/09/12 00:02:36;;;;;;;9.63;7.40;;;17.00;99.90;;;;;;5048287;28;20035;-41
2021/09/12 00:05:02;;;;;;;9.60;7.90;;;17.10;99.90;;;;;;5048683;28;20025;-41
2021/09/12 00:07:27;;;;;;;9.70;7.75;;;17.20;99.90;;;;;;5048147;28;20029;-41
2021/09/12 00:09:53;;;;;;;12.60;7.88;;;17.20;99.90;;;;;;5041619;28;20580;-42
2021/09/12 00:12:18;;;;;;;10.77;7.25;;;17.20;99.90;;;;;;5060150;28;20038;-42
2021/09/12 00:14:44;;;;;;;11.70;7.75;;;17.20;99.90;;;;;;5067000;28;20043;-41
2021/09/12 00:17:09;;;;;;;8.30;7.35;;;17.20;99.90;;;;;;5066685;28;20498;-42
2021/09/12 00:19:35;;;;;;;12.55;8.57;;;17.30;99.90;;;;;;5068020;28;20045;-42
2021/09/12 00:22:00;;;;;;;10.88;8.48;;;17.30;99.90;;;;;;5067357;28;20521;-42
2021/09/12 00:24:26;;;;;;;11.18;8.38;;;17.30;99.90;;;;;;5068391;28;20120;-43
2021/09/12 00:26:51;;;;;;;14.52;8.32;;;17.40;99.90;;;;;;5068316;28;20149;-42
2021/09/12 00:29:18;;;;;;;8.90;8.00;;;17.40;99.90;;;;;;5068866;28;20028;-42
2021/09/12 00:31:44;;;;;;;11.13;8.13;;;17.40;99.90;;;;;;5068789;28;20045;-42
2021/09/12 00:34:10;;;;;;;9.98;8.95;;;17.40;99.90;;;;;;5068513;28;20028;-41
2021/09/12 00:36:35;;;;;;;13.60;9.60;;;17.50;99.90;;;;;;5067649;28;20031;-41
2021/09/12 00:39:01;;;;;;;9.35;8.35;;;17.50;99.90;;;;;;5064237;28;20031;-41
2021/09/12 00:41:26;;;;;;;10.73;7.85;;;17.50;99.90;;;;;;5048676;28;20031;-42
2021/09/12 00:43:52;;;;;;;11.18;9.15;;;17.50;99.90;;;;;;5065265;28;20500;-41
2021/09/12 00:46:17;;;;;;;14.95;9.02;;;17.50;99.90;;;;;;5066221;28;20017;-42
2021/09/12 00:48:43;;;;;;;10.32;8.68;;;17.50;99.90;;;;;;5067714;28;20028;-42
2021/09/12 00:51:08;;;;;;;9.65;8.15;;;17.60;99.90;;;;;;5068612;28;20355;-42
2021/09/12 00:53:36;;;;;;;10.75;9.38;;;17.60;99.90;;;;;;5067933;28;20050;-42
2021/09/12 00:56:03;;;;;;;9.68;8.68;;;17.60;99.90;;;;;;5065666;28;20436;-44
2021/09/12 00:58:30;;;;;;;11.93;9.20;;;17.50;99.90;;;;;;5067344;28;20021;-41
2021/09/12 01:00:56;;;;;;;11.75;8.27;;;17.60;99.90;;;;;;5066397;28;20117;-41
2021/09/12 01:03:22;;;;;;;12.60;9.73;;;17.60;99.90;;;;;;5068284;28;20059;-41
2021/09/12 01:05:48;;;;;;;12.82;9.35;;;17.60;99.90;;;;;;5068047;28;20056;-41
2021/09/12 01:08:14;;;;;;;11.73;9.10;;;17.60;99.90;;;;;;5067596;28;20414;-42
2021/09/12 01:10:42;;;;;;;12.25;8.98;;;17.70;99.90;;;;;;5052394;28;20013;-41
2021/09/12 01:13:08;;;;;;;14.30;9.77;;;17.60;99.90;;;;;;5059853;28;20064;-41
2021/09/12 01:15:34;;;;;;;10.75;9.05;;;17.60;99.90;;;;;;5069877;28;20063;-41
2021/09/12 01:18:00;;;;;;;12.50;10.10;;;17.60;99.90;;;;;;5071307;28;20067;-41
2021/09/12 01:20:25;;;;;;;13.15;9.65;;;17.70;99.90;;;;;;5071934;28;20024;-41
2021/09/12 01:22:51;;;;;;;13.23;9.73;;;17.60;99.90;;;;;;5071899;28;20078;-41
2021/09/12 01:25:17;;;;;;;11.02;9.32;;;17.70;99.90;;;;;;5071820;28;20044;-42
2021/09/12 01:27:43;;;;;;;11.95;8.35;;;17.70;99.90;;;;;;5071179;28;20036;-41
2021/09/12 01:30:10;;;;;;;10.10;7.68;;;17.70;99.90;;;;;;5071788;28;20497;-41
2021/09/12 01:32:36;;;;;;;14.32;10.23;;;17.70;99.90;;;;;;5071968;28;20385;-41
2021/09/12 01:35:03;;;;;;;17.50;10.10;;;17.70;99.90;;;;;;5071712;28;20617;-41
2021/09/12 01:37:28;;;;;;;10.75;8.95;;;17.70;99.90;;;;;;5071116;28;20021;-41
2021/09/12 01:39:54;;;;;;;11.40;9.32;;;17.70;99.90;;;;;;5058558;28;20391;-41
2021/09/12 01:42:19;;;;;;;12.55;9.77;;;17.70;99.90;;;;;;5063529;28;20107;-41
2021/09/12 01:44:49;;;;;;;15.02;11.15;;;17.70;99.90;;;;;;5072320;28;20370;-41
2021/09/12 01:47:16;;;;;;;13.20;9.55;;;17.70;99.90;;;;;;5069746;28;20170;-41
2021/09/12 01:49:42;;;;;;;14.88;10.35;;;17.80;99.90;;;;;;5071558;28;20017;-41
2021/09/12 01:52:15;;;;;;;11.10;8.50;;;17.80;99.90;;;;;;5070227;28;20450;-42
2021/09/12 01:54:41;;;;;;;14.68;10.15;;;17.70;99.90;;;;;;5069926;28;20111;-41
2021/09/12 01:57:07;;;;;;;15.13;9.70;;;17.70;99.90;;;;;;5070699;28;20033;-41
2021/09/12 01:59:33;;;;;;;14.25;10.27;;;17.80;99.90;;;;;;5070237;28;20443;-41
2021/09/12 02:01:59;;;;;;;11.52;10.32;;;17.70;99.90;;;;;;5071995;28;20139;-42
2021/09/12 02:04:24;;;;;;;14.30;10.27;;;17.70;99.90;;;;;;5071431;28;20103;-41
2021/09/12 02:06:50;;;;;;;12.38;10.15;;;17.70;99.90;;;;;;5070742;28;20036;-41
2021/09/12 02:09:15;;;;;;;21.33;11.95;;;17.70;99.90;;;;;;5066146;28;20031;-41
2021/09/12 02:11:41;;;;;;;18.92;12.57;;;17.80;99.90;;;;;;5055869;28;20495;-41
2021/09/12 02:14:06;;;;;;;13.02;11.15;;;17.70;99.90;;;;;;5070976;28;20124;-41
2021/09/12 02:16:32;;;;;;;17.05;12.07;;;17.70;99.90;;;;;;5070414;28;20032;-42
2021/09/12 02:18:57;;;;;;;13.38;10.88;;;17.70;99.90;;;;;;5069480;28;20029;-41
2021/09/12 02:21:23;;;;;;;13.15;10.32;;;17.70;99.90;;;;;;5071021;28;20516;-41
2021/09/12 02:23:48;;;;;;;13.88;11.00;;;17.70;99.90;;;;;;5070609;28;20025;-42
2021/09/12 02:26:14;;;;;;;16.75;11.40;;;17.70;99.90;;;;;;5068910;28;20456;-42
2021/09/12 02:28:39;;;;;;;15.15;11.15;;;17.70;99.90;;;;;;5070165;28;20039;-41
2021/09/12 02:31:05;;;;;;;16.95;12.15;;;17.70;99.90;;;;;;5070131;28;20025;-41
2021/09/12 02:33:31;;;;;;;13.15;11.48;;;17.70;99.90;;;;;;5068530;28;20028;-41
2021/09/12 02:35:56;;;;;;;16.75;13.05;;;17.70;99.90;;;;;;5069973;28;20244;-41
2021/09/12 02:38:22;;;;;;;17.15;12.68;;;17.70;99.90;;;;;;5069322;28;20086;-41
2021/09/12 02:40:47;;;;;;;18.95;14.10;;;17.70;99.90;;;;;;5057555;28;20063;-41
2021/09/12 02:43:13;;;;;;;19.95;14.73;;;17.60;99.90;;;;;;5062246;28;20040;-41
2021/09/12 02:45:39;;;;;;;19.35;14.82;;;17.60;99.90;;;;;;5069737;28;20036;-41
2021/09/12 02:48:04;;;;;;;16.70;13.35;;;17.50;99.90;;;;;;5069482;28;20016;-41
2021/09/12 02:50:30;;;;;;;19.25;11.88;;;17.50;99.90;;;;;;5069944;28;20363;-42
2021/09/12 02:52:55;;;;;;;18.17;13.05;;;17.50;99.90;;;;;;5070371;28;20040;-41
2021/09/12 02:55:21;;;;;;;20.05;13.43;;;17.50;99.90;;;;;;5070115;28;20036;-41
2021/09/12 02:57:46;;;;;;;19.70;13.82;;;17.60;99.90;;;;;;5070074;28;20040;-41
2021/09/12 03:00:13;;;;;;;19.17;13.35;;;17.50;99.90;;;;;;5069693;28;20747;-41
2021/09/12 03:02:39;;;;;;;20.02;13.85;;;17.40;99.90;;;;;;5068467;28;20039;-41
2021/09/12 03:05:05;;;;;;;21.98;14.27;;;17.40;99.90;;;;;;5070195;28;20048;-41
2021/09/12 03:07:30;;;;;;;18.02;13.48;;;17.40;99.90;;;;;;5069285;28;20037;-42
2021/09/12 03:09:56;;;;;;;15.85;12.15;;;17.40;99.90;;;;;;5057751;28;20043;-42
2021/09/12 03:12:21;;;;;;;18.05;12.82;;;17.40;99.90;;;;;;5060185;28;20482;-42
2021/09/12 03:14:47;;;;;;;14.25;12.07;;;17.40;99.90;;;;;;5070027;28;20025;-41
2021/09/12 03:17:12;;;;;;;19.25;13.93;;;17.40;99.90;;;;;;5069316;28;20474;-42
2021/09/12 03:19:38;;;;;;;19.48;13.45;;;17.50;99.90;;;;;;5070355;28;20022;-41
2021/09/12 03:22:04;;;;;;;16.10;12.80;;;17.50;99.90;;;;;;5070416;28;20573;-42
2021/09/12 03:24:30;;;;;;;13.85;10.88;;;17.50;99.90;;;;;;5070391;28;20382;-41
2021/09/12 03:26:55;;;;;;;19.23;13.77;;;17.50;99.90;;;;;;5069324;28;20386;-41
2021/09/12 03:29:21;;;;;;;20.05;12.45;;;17.50;99.90;;;;;;5069776;28;20028;-41
2021/09/12 03:31:47;;;;;;;20.48;12.85;;;17.50;99.90;;;;;;5068306;28;20016;-41
2021/09/12 03:34:12;;;;;;;15.13;12.50;;;17.50;99.90;;;;;;5069782;28;20017;-41
2021/09/12 03:36:38;;;;;;;15.15;11.48;;;17.50;99.90;;;;;;5068753;28;20042;-41
2021/09/12 03:39:04;;;;;;;20.08;14.55;;;17.50;99.90;;;;;;5068818;28;20025;-42
2021/09/12 03:41:30;;;;;;;18.85;13.38;;;17.50;99.90;;;;;;5053291;28;20079;-41
2021/09/12 03:43:55;;;;;;;19.90;14.27;;;17.50;99.90;;;;;;5066475;28;20023;-41
2021/09/12 03:46:21;;;;;;;18.10;12.98;;;17.50;99.90;;;;;;5068827;28;20035;-41
2021/09/12 03:48:46;;;;;;;21.65;15.23;;;17.50;99.90;;;;;;5069102;28;20382;-41
2021/09/12 03:51:12;;;;;;;23.42;15.23;;;17.50;99.90;;;;;;5067990;28;20389;-42
2021/09/12 03:53:37;;;;;;;18.63;14.15;;;17.50;99.90;;;;;;5069058;28;20171;-41
2021/09/12 03:56:03;;;;;;;23.52;15.93;;;17.50;99.90;;;;;;5068781;28;20029;-41
2021/09/12 03:58:28;;;;;;;16.73;13.70;;;17.50;99.90;;;;;;5068616;28;20029;-42
2021/09/12 04:00:54;;;;;;;22.45;14.75;;;17.50;99.90;;;;;;5069414;28;20024;-42
2021/09/12 04:03:19;;;;;;;22.30;13.48;;;17.50;99.90;;;;;;5067469;28;20039;-42
2021/09/12 04:05:45;;;;;;;22.63;16.25;;;17.50;99.90;;;;;;5069111;28;20028;-41
2021/09/12 04:08:11;;;;;;;18.17;14.85;;;17.50;99.90;;;;;;5068170;28;20029;-41
2021/09/12 04:10:36;;;;;;;17.35;13.90;;;17.50;99.90;;;;;;5058541;28;20024;-41
2021/09/12 04:13:02;;;;;;;19.95;14.13;;;17.50;99.90;;;;;;5060273;28;20077;-41
2021/09/12 04:15:27;;;;;;;21.45;15.23;;;17.50;99.90;;;;;;5068954;28;20025;-41
2021/09/12 04:17:53;;;;;;;23.85;15.27;;;17.50;99.90;;;;;;5068438;28;20064;-41
2021/09/12 04:20:18;;;;;;;23.60;16.00;;;17.50;99.90;;;;;;5068901;28;20084;-41
2021/09/12 04:22:44;;;;;;;27.98;17.08;;;17.50;99.90;;;;;;5068697;28;20127;-41
2021/09/12 04:25:10;;;;;;;24.95;16.30;;;17.50;99.90;;;;;;5067244;28;20029;-41
2021/09/12 04:27:35;;;;;;;30.67;17.35;;;17.50;99.90;;;;;;5066272;28;20040;-41
2021/09/12 04:30:01;;;;;;;23.25;16.48;;;17.50;99.90;;;;;;5068510;28;20024;-42
2021/09/12 04:32:26;;;;;;;20.65;16.08;;;17.50;99.90;;;;;;5068888;28;20039;-41
2021/09/12 04:34:53;;;;;;;18.73;15.18;;;17.40;99.90;;;;;;5068582;28;20028;-42
2021/09/12 04:37:18;;;;;;;19.40;15.45;;;17.40;99.90;;;;;;5068021;28;20071;-42
2021/09/12 04:39:44;;;;;;;20.40;15.35;;;17.40;99.90;;;;;;5058535;28;20057;-41
2021/09/12 04:42:09;;;;;;;22.40;14.43;;;17.40;99.90;;;;;;5058906;28;20489;-42
2021/09/12 04:44:35;;;;;;;21.73;16.58;;;17.40;99.90;;;;;;5068250;28;20033;-41
2021/09/12 04:47:00;;;;;;;20.27;15.15;;;17.40;99.90;;;;;;5067748;28;20099;-42
2021/09/12 04:49:26;;;;;;;23.42;15.20;;;17.50;99.90;;;;;;5068386;28;20017;-42
2021/09/12 04:51:51;;;;;;;19.85;15.48;;;17.50;99.90;;;;;;5068351;28;20034;-42
2021/09/12 04:54:17;;;;;;;21.23;16.58;;;17.40;99.90;;;;;;5068208;28;20098;-41
2021/09/12 04:56:42;;;;;;;22.25;16.00;;;17.50;99.90;;;;;;5066343;28;20059;-41
2021/09/12 04:59:08;;;;;;;22.33;15.98;;;17.50;99.90;;;;;;5068826;28;20025;-41
2021/09/12 05:01:33;;;;;;;22.98;17.27;;;17.50;99.90;;;;;;5068638;28;20025;-41
2021/09/12 05:04:00;;;;;;;23.77;17.92;;;17.50;99.90;;;;;;5067800;28;20032;-41
2021/09/12 05:06:26;;;;;;;22.15;16.85;;;17.50;99.90;;;;;;5066365;28;20028;-42
2021/09/12 05:08:51;;;;;;;21.33;16.08;;;17.50;99.90;;;;;;5068156;28;20033;-42
2021/09/12 05:11:17;;;;;;;21.00;15.50;;;17.50;99.90;;;;;;5053904;28;20035;-41
2021/09/12 05:13:42;;;;;;;24.45;17.60;;;17.50;99.90;;;;;;5064854;28;20032;-42
2021/09/12 05:16:08;;;;;;;22.90;16.65;;;17.50;99.90;;;;;;5067927;28;20033;-42
2021/09/12 05:18:33;;;;;;;22.90;16.10;;;17.50;99.90;;;;;;5066247;28;20041;-41
2021/09/12 05:20:59;;;;;;;23.73;15.63;;;17.50;99.90;;;;;;5068154;28;20107;-41
2021/09/12 05:23:25;;;;;;;25.00;16.13;;;17.50;99.90;;;;;;5068228;28;20033;-42
2021/09/12 05:25:50;;;;;;;22.08;17.25;;;17.60;99.90;;;;;;5067880;28;20461;-41
2021/09/12 05:28:17;;;;;;;23.30;15.95;;;17.50;99.90;;;;;;5056364;28;20124;-42
2021/09/12 05:30:43;;;;;;;20.40;15.88;;;17.50;99.90;;;;;;5047963;28;20105;-41
2021/09/12 05:33:08;;;;;;;20.67;16.15;;;17.60;99.90;;;;;;5047975;28;20115;-41
2021/09/12 05:35:34;;;;;;;20.40;15.25;;;17.50;99.90;;;;;;5047856;28;20064;-41
2021/09/12 05:37:59;;;;;;;21.25;15.75;;;17.60;99.90;;;;;;5047056;28;20033;-42
2021/09/12 05:40:25;;;;;;;22.70;16.45;;;17.60;99.90;;;;;;5049415;28;20557;-42
2021/09/12 05:42:50;;;;;;;20.98;15.90;;;17.60;99.90;;;;;;5058069;28;20025;-42
2021/09/12 05:45:16;;;;;;;20.98;15.65;;;17.70;99.90;;;;;;5035772;28;20071;-42
2021/09/12 05:47:41;;;;;;;19.35;14.27;;;17.70;99.90;;;;;;5026900;28;20407;-42
2021/09/12 05:50:07;;;;;;;19.50;14.27;;;17.70;99.90;;;;;;5032491;28;20053;-42
2021/09/12 05:52:34;;;;;;;17.05;13.95;;;17.70;99.90;;;;;;5036916;28;20494;-41
2021/09/12 05:55:00;;;;;;;17.65;13.98;;;17.70;99.90;;;;;;5034768;28;20078;-41
2021/09/12 05:57:25;;;;;;;20.33;15.60;;;17.80;99.90;;;;;;5036022;28;20025;-41
2021/09/12 05:59:51;;;;;;;20.23;15.88;;;17.80;99.90;;;;;;5043093;28;20040;-41
2021/09/12 06:02:17;;;;;;;16.85;13.95;;;17.80;99.90;;;;;;5050247;28;20186;-41
2021/09/12 06:04:43;;;;;;;18.02;13.70;;;17.80;99.90;;;;;;5051580;28;20017;-43
2021/09/12 06:07:09;;;;;;;25.80;15.60;;;17.90;99.90;;;;;;5046093;28;20044;-41
2021/09/12 06:09:35;;;;;;;20.73;13.80;;;17.90;99.90;;;;;;5039496;28;20235;-42
2021/09/12 06:12:01;;;;;;;16.77;13.57;;;17.90;99.90;;;;;;5050306;28;20028;-42
2021/09/12 06:14:26;;;;;;;21.20;16.13;;;18.00;99.90;;;;;;5040414;28;20039;-41
2021/09/12 06:16:52;;;;;;;18.23;13.65;;;18.00;99.90;;;;;;5044957;28;20033;-42
2021/09/12 06:19:17;;;;;;;16.45;13.30;;;18.00;99.90;;;;;;5043304;28;20031;-41
2021/09/12 06:21:44;;;;;;;17.92;13.13;;;18.00;99.90;;;;;;5043413;28;20037;-41
2021/09/12 06:24:09;;;;;;;14.43;12.40;;;18.00;99.90;;;;;;5039597;28;20180;-41
2021/09/12 06:26:35;;;;;;;17.27;13.18;;;18.10;99.90;;;;;;5040209;28;20545;-41
2021/09/12 06:29:00;;;;;;;18.40;14.40;;;18.10;99.90;;;;;;5034418;28;20052;-41
2021/09/12 06:31:26;;;;;;;20.05;13.95;;;18.10;99.90;;;;;;5031032;28;20475;-40
2021/09/12 06:33:52;;;;;;;16.58;13.10;;;18.20;99.90;;;;;;5030031;28;20053;-41
2021/09/12 06:36:18;;;;;;;17.55;12.35;;;18.20;99.90;;;;;;5033306;28;20438;-41
2021/09/12 06:38:44;;;;;;;20.52;13.75;;;18.30;99.90;;;;;;5038885;28;20022;-41
2021/09/12 06:41:10;;;;;;;16.67;14.15;;;18.40;99.90;;;;;;5048693;28;20517;-41
2021/09/12 06:43:36;;;;;;;23.10;15.68;;;18.40;99.90;;;;;;5044159;28;20096;-40
2021/09/12 06:46:01;;;;;;;19.35;15.02;;;18.40;99.90;;;;;;5039017;28;20033;-41
2021/09/12 06:48:27;;;;;;;19.85;16.08;;;18.50;99.90;;;;;;5041527;28;20090;-40
2021/09/12 06:50:53;;;;;;;18.88;13.40;;;18.50;99.90;;;;;;5034558;28;20422;-41
2021/09/12 06:53:19;;;;;;;17.90;14.32;;;18.60;99.90;;;;;;5056191;28;20175;-40
2021/09/12 06:55:45;;;;;;;21.63;15.30;;;18.70;99.90;;;;;;5069035;28;20032;-41
2021/09/12 06:58:11;;;;;;;15.77;13.48;;;18.70;99.90;;;;;;5068989;28;20112;-41
2021/09/12 07:00:37;;;;;;;16.50;13.52;;;18.90;99.90;;;;;;5069208;28;20040;-41
2021/09/12 07:03:03;;;;;;;20.55;15.00;;;19.00;99.90;;;;;;5069701;28;20036;-41
2021/09/12 07:05:28;;;;;;;17.95;14.18;;;19.10;99.90;;;;;;5069195;28;20474;-41
2021/09/12 07:07:54;;;;;;;20.38;14.98;;;19.20;99.90;;;;;;5067493;28;20020;-40
2021/09/12 07:10:19;;;;;;;17.42;14.55;;;19.00;99.90;;;;;;5061526;28;20138;-41
2021/09/12 07:12:46;;;;;;;20.45;15.20;;;19.00;99.90;;;;;;5059578;28;20181;-41
2021/09/12 07:15:11;;;;;;;21.65;16.38;;;19.00;99.90;;;;;;5069639;28;20020;-41
2021/09/12 07:17:37;;;;;;;24.92;16.48;;;19.00;99.90;;;;;;5068613;28;20036;-40
2021/09/12 07:20:03;;;;;;;18.95;14.50;;;19.00;99.90;;;;;;5068973;28;20418;-40
2021/09/12 07:22:28;;;;;;;20.50;15.52;;;19.10;99.90;;;;;;5068946;28;20151;-40
2021/09/12 07:24:54;;;;;;;22.90;16.63;;;19.20;99.90;;;;;;5051230;28;20123;-41
2021/09/12 07:27:19;;;;;;;20.23;15.00;;;19.20;99.90;;;;;;5044621;28;20043;-42
2021/09/12 07:29:45;;;;;;;21.92;13.98;;;19.30;99.90;;;;;;5029251;28;20022;-41
2021/09/12 07:32:10;;;;;;;21.77;16.25;;;19.50;99.90;;;;;;5029174;28;20029;-40
2021/09/12 07:34:36;;;;;;;20.75;15.48;;;19.50;99.90;;;;;;5029035;28;20044;-41
2021/09/12 07:37:02;;;;;;;22.52;14.80;;;19.50;99.90;;;;;;5047952;28;20033;-41
2021/09/12 07:39:27;;;;;;;23.33;15.85;;;19.50;99.90;;;;;;5048206;28;20021;-41
2021/09/12 07:41:53;;;;;;;22.20;16.10;;;19.40;99.90;;;;;;5055964;28;20546;-41
2021/09/12 07:44:18;;;;;;;21.27;15.27;;;19.30;99.90;;;;;;5069021;28;20382;-41
2021/09/12 07:46:44;;;;;;;23.88;16.55;;;19.20;99.90;;;;;;5067273;28;20017;-41
2021/09/12 07:49:09;;;;;;;22.00;15.35;;;19.20;99.90;;;;;;5067927;28;20024;-41
2021/09/12 07:51:35;;;;;;;23.08;16.80;;;19.30;99.90;;;;;;5050630;28;20022;-41
2021/09/12 07:54:00;;;;;;;24.63;16.48;;;19.30;99.90;;;;;;5035320;28;20033;-41
2021/09/12 07:56:26;;;;;;;23.70;17.52;;;19.30;99.90;;;;;;5046497;28;20025;-41
2021/09/12 07:58:51;;;;;;;23.52;14.77;;;19.50;99.90;;;;;;5035711;28;20302;-41
2021/09/12 08:01:17;;;;;;;20.55;14.15;;;19.70;99.90;;;;;;5028159;28;20086;-41
2021/09/12 08:03:42;;;;;;;20.38;14.80;;;20.00;99.90;;;;;;5026802;28;20029;-41
2021/09/12 08:06:08;;;;;;;16.77;14.05;;;20.30;99.90;;;;;;5027800;28;20079;-41
2021/09/12 08:08:33;;;;;;;18.80;12.85;;;20.20;99.90;;;;;;5027822;28;20040;-41
2021/09/12 08:10:59;;;;;;;21.42;15.20;;;20.30;99.90;;;;;;5045786;28;20099;-42
2021/09/12 08:13:24;;;;;;;20.73;12.55;;;20.30;99.90;;;;;;5061811;28;20518;-41
2021/09/12 08:15:50;;;;;;;17.58;13.73;;;20.30;99.90;;;;;;5067807;28;20025;-41
2021/09/12 08:18:17;;;;;;;15.85;11.85;;;20.30;99.90;;;;;;5056469;28;20536;-43
2021/09/12 08:20:42;;;;;;;18.65;13.52;;;20.30;99.90;;;;;;5047778;28;20025;-43
2021/09/12 08:23:08;;;;;;;18.00;13.88;;;20.40;99.90;;;;;;5040031;28;20483;-42
2021/09/12 08:25:33;;;;;;;22.02;13.48;;;20.50;99.90;;;;;;5037429;28;20379;-42
2021/09/12 08:27:59;;;;;;;19.83;14.27;;;20.60;99.90;;;;;;5036464;28;20051;-43
2021/09/12 08:30:25;;;;;;;17.35;14.30;;;20.60;99.90;;;;;;5031183;28;20030;-42
2021/09/12 08:32:50;;;;;;;19.85;15.50;;;20.60;99.90;;;;;;5026550;28;20399;-43
2021/09/12 08:35:16;;;;;;;21.48;15.02;;;20.50;99.90;;;;;;5027734;28;20026;-43
2021/09/12 08:37:41;;;;;;;19.73;12.77;;;20.40;99.90;;;;;;5025501;28;20025;-43
2021/09/12 08:40:08;;;;;;;18.65;12.60;;;20.50;99.90;;;;;;5034115;28;20016;-42
2021/09/12 08:42:34;;;;;;;17.58;13.77;;;20.60;99.90;;;;;;5057825;28;20069;-42
2021/09/12 08:45:01;;;;;;;20.90;15.07;;;20.50;99.90;;;;;;5067443;28;20413;-43
2021/09/12 08:47:28;;;;;;;18.05;13.00;;;20.30;99.90;;;;;;5066116;28;20163;-42
2021/09/12 08:49:54;;;;;;;18.10;13.48;;;20.20;99.90;;;;;;5067211;28;20445;-42
2021/09/12 08:52:19;;;;;;;25.35;15.93;;;20.20;99.90;;;;;;5055615;28;20024;-42
2021/09/12 08:54:45;;;;;;;18.23;15.13;;;20.20;99.90;;;;;;5034100;28;20024;-42
2021/09/12 08:57:11;;;;;;;20.65;14.27;;;20.30;99.90;;;;;;5029110;28;20039;-42
2021/09/12 08:59:37;;;;;;;18.55;14.52;;;20.20;99.90;;;;;;5047517;28;20033;-43
2021/09/12 09:02:05;;;;;;;21.00;14.60;;;20.20;99.90;;;;;;5035050;28;20037;-43
2021/09/12 09:04:58;;;;;;;20.13;14.68;;;20.30;99.90;;;;;;5027608;28;20029;-42
2021/09/12 09:07:29;;;;;;;20.45;14.38;;;20.40;99.90;;;;;;5031136;28;20041;-42
2021/09/12 09:09:56;;;;;;;17.38;13.40;;;20.50;99.90;;;;;;5032719;28;20041;-42
2021/09/12 09:12:25;;;;;;;23.27;15.20;;;20.40;99.90;;;;;;5051378;28;20369;-42
2021/09/12 09:15:22;;;;;;;23.27;15.98;;;20.30;99.90;;;;;;5058320;28;20021;-42
2021/09/12 09:17:53;;;;;;;17.40;12.23;;;20.40;99.90;;;;;;5046566;28;20571;-42
2021/09/12 09:20:32;;;;;;;16.92;14.02;;;20.60;99.90;;;;;;5047666;28;20017;-43
2021/09/12 09:23:03;;;;;;;20.70;15.95;;;20.50;99.90;;;;;;5047378;28;20043;-42
2021/09/12 09:25:29;;;;;;;21.98;15.40;;;20.50;99.90;;;;;;5046188;28;20027;-41
2021/09/12 09:28:04;;;;;;;23.25;15.55;;;20.40;99.90;;;;;;5046512;28;20140;-43
2021/09/12 09:30:37;;;;;;;17.98;15.10;;;20.30;99.90;;;;;;5047348;28;20122;-42
2021/09/12 09:33:33;;;;;;;20.83;16.05;;;20.30;99.90;;;;;;5047415;28;20075;-42
2021/09/12 09:36:02;;;;;;;19.83;15.32;;;20.20;99.90;;;;;;5027962;28;20041;-42
2021/09/12 09:38:32;;;;;;;20.45;15.02;;;20.00;99.90;;;;;;5045971;28;20276;-43
2021/09/12 09:41:02;;;;;;;19.10;15.27;;;20.10;99.90;;;;;;5063824;28;20031;-42
2021/09/12 09:43:52;;;;;;;17.67;13.85;;;20.20;99.90;;;;;;5065590;28;20773;-42
2021/09/12 09:46:38;;;;;;;16.30;13.05;;;20.30;99.90;;;;;;5070348;28;20111;-43
2021/09/12 09:49:26;;;;;;;15.20;11.52;;;20.40;99.90;;;;;;5070868;28;20032;-42
2021/09/12 09:52:00;;;;;;;8.43;5.57;;;20.40;99.90;;;;;;5069651;28;20025;-42
2021/09/12 09:54:29;;;;;;;5.78;3.67;;;20.30;99.90;;;;;;5050660;28;20116;-43
2021/09/12 09:56:56;;;;;;;4.57;4.15;;;20.30;99.90;;;;;;5060120;28;20042;-42
2021/09/12 09:59:23;;;;;;;3.65;3.20;;;20.30;99.90;;;;;;5071047;28;20397;-42
2021/09/12 10:01:51;;;;;;;2.72;2.53;;;20.20;99.90;;;;;;5057587;28;20108;-42
2021/09/12 10:04:23;;;;;;;3.35;2.95;;;20.20;99.90;;;;;;5051513;28;20474;-42
2021/09/12 10:06:49;;;;;;;4.35;3.60;;;20.30;99.90;;;;;;5050810;28;20463;-42
2021/09/12 10:09:17;;;;;;;10.43;7.68;;;20.30;99.90;;;;;;5051254;28;20475;-42
2021/09/12 10:11:47;;;;;;;2.92;2.28;;;20.30;99.90;;;;;;5054433;28;20017;-42
2021/09/12 10:14:52;;;;;;;4.10;3.20;;;20.30;99.90;;;;;;5047167;28;20418;-42
2021/09/12 10:17:24;;;;;;;2.45;2.20;;;20.50;99.90;;;;;;5046646;28;20458;-42
2021/09/12 10:20:04;;;;;;;3.90;2.22;;;20.60;99.90;;;;;;5028408;28;20124;-43
2021/09/12 10:22:29;;;;;;;3.75;2.55;;;20.60;99.90;;;;;;5030098;28;20037;-42
2021/09/12 10:25:01;;;;;;;3.22;2.60;;;20.70;99.90;;;;;;5030018;28;20118;-42
2021/09/12 10:27:38;;;;;;;4.07;3.08;;;20.70;99.90;;;;;;5029490;28;20100;-42
2021/09/12 10:30:27;;;;;;;3.58;3.10;;;20.70;99.90;;;;;;5030086;28;20104;-42
2021/09/12 10:33:13;;;;;;;4.32;3.90;;;20.60;99.90;;;;;;5027989;28;20029;-42
2021/09/12 10:35:49;;;;;;;4.78;3.60;;;20.60;99.90;;;;;;5024650;28;20052;-42
2021/09/12 10:38:31;;;;;;;5.00;3.63;;;20.50;99.90;;;;;;5029301;28;20104;-43
2021/09/12 10:40:56;;;;;;;6.57;5.03;;;20.60;99.90;;;;;;5047840;28;20035;-42
2021/09/12 10:43:24;;;;;;;7.80;5.78;;;20.40;99.90;;;;;;5063466;28;20033;-42
2021/09/12 10:46:05;;;;;;;8.55;6.03;;;20.40;99.90;;;;;;5069975;28;20376;-43
2021/09/12 10:48:36;;;;;;;6.78;5.25;;;20.40;99.90;;;;;;5068874;28;20028;-42
2021/09/12 10:51:28;;;;;;;11.70;7.15;;;20.50;99.90;;;;;;5068521;28;20029;-42
2021/09/12 10:53:55;;;;;;;9.43;6.65;;;20.20;99.90;;;;;;5068181;28;20086;-42
2021/09/12 10:56:21;;;;;;;20.63;12.80;;;20.20;99.90;;;;;;5068967;28;20024;-43
2021/09/12 10:58:49;;;;;;;12.52;8.48;;;20.20;99.90;;;;;;5069443;28;20029;-43
2021/09/12 11:01:42;;;;;;;12.73;8.05;;;20.20;99.90;;;;;;5063690;28;20059;-42
2021/09/12 11:04:10;;;;;;;12.20;8.25;;;20.30;99.90;;;;;;5053156;28;20486;-42
2021/09/12 11:06:38;;;;;;;11.50;8.40;;;20.40;99.90;;;;;;5046992;28;20467;-44
2021/09/12 11:09:15;;;;;;;13.23;8.82;;;20.70;99.90;;;;;;5048306;28;20025;-43
2021/09/12 11:11:41;;;;;;;10.85;7.53;;;20.60;99.90;;;;;;5055042;28;20017;-43
2021/09/12 11:14:08;;;;;;;10.20;7.47;;;20.80;99.90;;;;;;5068758;28;20263;-43
2021/09/12 11:16:33;;;;;;;11.35;7.45;;;21.00;99.90;;;;;;5068984;28;20028;-44
2021/09/12 11:19:03;;;;;;;10.60;7.15;;;21.40;99.90;;;;;;5069351;28;20082;-44
2021/09/12 11:21:33;;;;;;;11.23;6.88;;;22.10;99.90;;;;;;5069186;28;20035;-42
2021/09/12 11:24:05;;;;;;;8.60;7.10;;;22.70;99.90;;;;;;5068298;28;20024;-44
2021/09/12 11:26:37;;;;;;;9.63;6.78;;;22.70;99.90;;;;;;5067703;28;20266;-43
2021/09/12 11:29:05;;;;;;;10.70;7.32;;;22.70;99.90;;;;;;5068914;28;20289;-43
2021/09/12 11:31:33;;;;;;;11.48;7.55;;;22.70;99.90;;;;;;5069359;28;20075;-44
2021/09/12 11:33:59;;;;;;;10.23;7.47;;;22.60;99.90;;;;;;5069113;28;20017;-43
2021/09/12 11:36:24;;;;;;;11.15;6.93;;;22.50;99.90;;;;;;5069365;28;20117;-45
2021/09/12 11:38:55;;;;;;;9.45;7.25;;;22.30;99.90;;;;;;5069872;28;20060;-43
2021/09/12 11:41:23;;;;;;;14.57;8.15;;;22.30;99.90;;;;;;5061602;28;20290;-43
2021/09/12 11:43:57;;;;;;;8.10;7.28;;;22.20;99.90;;;;;;5067248;28;20032;-43
2021/09/12 11:46:23;;;;;;;9.80;7.82;;;22.30;99.90;;;;;;5069098;28;20103;-41
2021/09/12 11:49:04;;;;;;;13.73;7.72;;;22.30;99.90;;;;;;5067990;28;20073;-43
2021/09/12 11:51:35;;;;;;;11.32;7.43;;;22.00;99.90;;;;;;5069360;28;20048;-41
2021/09/12 11:54:06;;;;;;;11.13;7.43;;;22.10;99.90;;;;;;5069155;28;20033;-41
2021/09/12 11:56:32;;;;;;;10.55;7.95;;;22.20;99.90;;;;;;5068025;28;20120;-41
2021/09/12 11:59:00;;;;;;;10.68;7.55;;;22.20;99.90;;;;;;5068785;28;20103;-42
2021/09/12 12:01:25;;;;;;;9.80;6.63;;;22.60;99.90;;;;;;5068549;28;20108;-45
2021/09/12 12:03:52;;;;;;;8.70;6.65;;;22.90;99.90;;;;;;5068498;28;20354;-43
2021/09/12 12:06:17;;;;;;;8.35;6.70;;;23.10;99.90;;;;;;5067965;28;20086;-43
2021/09/12 12:09:07;;;;;;;8.90;6.65;;;23.00;99.90;;;;;;5067557;28;20032;-43
2021/09/12 12:11:34;;;;;;;8.82;6.85;;;23.10;99.90;;;;;;5060277;28;20028;-42
2021/09/12 12:14:00;;;;;;;11.90;7.53;;;23.20;99.90;;;;;;5067596;28;20622;-43
2021/09/12 12:16:25;;;;;;;9.00;6.15;;;23.30;99.90;;;;;;5068111;28;20099;-43
2021/09/12 12:19:02;;;;;;;10.10;7.07;;;23.20;99.90;;;;;;5067014;28;20024;-44
2021/09/12 12:21:31;;;;;;;8.40;6.93;;;23.30;99.90;;;;;;5068717;28;20033;-43
2021/09/12 12:23:57;;;;;;;9.25;5.68;;;23.60;99.90;;;;;;5068744;28;20533;-42
2021/09/12 12:26:24;;;;;;;9.50;6.15;;;23.70;99.90;;;;;;5067818;28;20178;-45
2021/09/12 12:28:57;;;;;;;9.35;6.10;;;23.70;99.90;;;;;;5067203;28;20500;-43
2021/09/12 12:31:23;;;;;;;8.98;6.07;;;23.40;99.90;;;;;;5068536;28;20033;-43
2021/09/12 12:33:48;;;;;;;7.97;6.20;;;23.30;99.90;;;;;;5067253;28;20082;-44